createdAt,value
2022-12-08T00:00:46.931Z,18.17
2022-12-08T00:03:17.276Z,15.87
2022-12-08T00:06:07.497Z,17.60
2022-12-08T00:08:55.468Z,20.10
2022-12-08T00:11:25.204Z,18.73
2022-12-08T00:13:55.677Z,18.77
2022-12-08T00:16:25.597Z,16.50
2022-12-08T00:18:55.321Z,19.00
2022-12-08T00:21:25.055Z,18.47
2022-12-08T00:23:56.911Z,18.53
2022-12-08T00:26:26.681Z,22.17
2022-12-08T00:28:56.871Z,17.98
2022-12-08T00:31:27.357Z,16.20
2022-12-08T00:33:56.811Z,18.12
2022-12-08T00:36:26.414Z,16.23
2022-12-08T00:38:56.044Z,17.30
2022-12-08T00:41:45.380Z,19.52
2022-12-08T00:44:19.771Z,20.30
2022-12-08T00:46:50.032Z,19.20
2022-12-08T00:49:20.432Z,17.37
2022-12-08T00:51:50.531Z,20.05
2022-12-08T00:54:20.403Z,20.57
2022-12-08T00:56:50.261Z,21.27
2022-12-08T00:59:20.432Z,21.13
2022-12-08T01:01:50.298Z,26.10
2022-12-08T01:04:20.979Z,25.00
2022-12-08T01:06:51.180Z,25.03
2022-12-08T01:09:21.450Z,24.63
2022-12-08T01:11:51.492Z,21.63
2022-12-08T01:14:21.594Z,27.13
2022-12-08T01:16:51.360Z,28.60
2022-12-08T01:19:20.403Z,30.15
2022-12-08T01:21:49.988Z,25.47
2022-12-08T01:24:22.154Z,28.92
2022-12-08T01:26:52.522Z,29.87
2022-12-08T01:29:22.612Z,30.90
2022-12-08T01:31:52.383Z,27.97
2022-12-08T01:34:22.370Z,28.75
2022-12-08T01:36:52.112Z,27.80
2022-12-08T01:39:22.192Z,32.03
2022-12-08T01:41:52.207Z,31.45
2022-12-08T01:44:25.264Z,27.55
2022-12-08T01:46:55.930Z,27.63
2022-12-08T01:49:32.010Z,29.77
2022-12-08T01:52:07.641Z,32.17
2022-12-08T01:54:40.100Z,31.60
2022-12-08T01:57:24.747Z,27.13
2022-12-08T01:59:57.825Z,26.85
2022-12-08T02:02:30.641Z,27.80
2022-12-08T02:05:01.265Z,21.70
2022-12-08T02:07:32.536Z,26.65
2022-12-08T02:10:03.660Z,24.03
2022-12-08T02:12:33.737Z,22.00
2022-12-08T02:15:05.453Z,21.77
2022-12-08T02:17:40.721Z,20.30
2022-12-08T02:20:33.934Z,24.30
2022-12-08T02:23:18.575Z,21.47
2022-12-08T02:25:59.709Z,21.65
2022-12-08T02:28:50.512Z,22.87
2022-12-08T02:31:32.149Z,19.17
2022-12-08T02:34:22.905Z,22.00
2022-12-08T02:36:55.672Z,22.93
2022-12-08T02:39:46.782Z,19.85
2022-12-08T02:42:47.256Z,16.80
2022-12-08T02:45:25.171Z,19.62
2022-12-08T02:47:55.752Z,18.63
2022-12-08T02:50:25.486Z,19.57
2022-12-08T02:52:55.861Z,17.20
2022-12-08T02:55:31.462Z,17.27
2022-12-08T02:58:06.981Z,23.00
2022-12-08T03:00:54.483Z,19.57
2022-12-08T03:03:47.765Z,17.93
2022-12-08T03:06:42.103Z,19.80
2022-12-08T03:09:33.223Z,17.15
2022-12-08T03:12:21.088Z,19.30
2022-12-08T03:14:54.200Z,19.77
2022-12-08T03:17:27.103Z,21.97
2022-12-08T03:19:59.146Z,17.90
2022-12-08T03:22:30.076Z,14.15
2022-12-08T03:24:59.976Z,12.37
2022-12-08T03:27:31.932Z,12.95
2022-12-08T03:30:02.944Z,14.07
2022-12-08T03:32:47.706Z,14.75
2022-12-08T03:35:20.799Z,12.23
2022-12-08T03:37:50.612Z,13.60
2022-12-08T03:40:21.961Z,9.27
2022-12-08T03:42:51.691Z,10.87
2022-12-08T03:45:21.761Z,9.90
2022-12-08T03:47:52.463Z,8.67
2022-12-08T03:50:22.307Z,8.03
2022-12-08T03:52:52.202Z,8.83
2022-12-08T03:55:21.924Z,7.00
2022-12-08T03:57:51.936Z,6.62
2022-12-08T04:00:21.791Z,8.88
2022-12-08T04:02:51.582Z,8.70
2022-12-08T04:05:21.225Z,6.07
2022-12-08T04:07:50.980Z,7.07
2022-12-08T04:10:20.755Z,7.63
2022-12-08T04:12:50.644Z,7.97
2022-12-08T04:15:20.438Z,5.05
2022-12-08T04:17:50.469Z,9.03
2022-12-08T04:20:20.075Z,9.10
2022-12-08T04:22:49.785Z,5.90
2022-12-08T04:25:19.571Z,8.07
2022-12-08T04:27:49.282Z,7.60
2022-12-08T04:30:20.966Z,5.52
2022-12-08T04:32:50.702Z,10.00
2022-12-08T04:35:20.420Z,5.72
2022-12-08T04:37:50.034Z,4.65
2022-12-08T04:40:20.807Z,5.08
2022-12-08T04:42:50.600Z,6.33
2022-12-08T04:45:20.142Z,6.43
2022-12-08T04:47:49.942Z,7.60
2022-12-08T04:50:19.503Z,6.50
2022-12-08T04:52:49.248Z,3.83
2022-12-08T04:55:19.404Z,4.97
2022-12-08T04:57:49.124Z,5.37
2022-12-08T05:00:19.791Z,5.90
2022-12-08T05:02:49.674Z,7.77
2022-12-08T05:05:19.421Z,5.87
2022-12-08T05:07:49.260Z,4.53
2022-12-08T05:10:18.824Z,2.40
2022-12-08T05:12:48.543Z,3.67
2022-12-08T05:15:18.404Z,2.15
2022-12-08T05:17:48.109Z,2.50
2022-12-08T05:20:17.617Z,3.40
2022-12-08T05:22:47.316Z,3.30
2022-12-08T05:25:17.100Z,2.22
2022-12-08T05:27:46.879Z,0.70
2022-12-08T05:30:18.644Z,2.20
2022-12-08T05:32:48.348Z,3.73
2022-12-08T05:35:18.233Z,2.12
2022-12-08T05:37:48.232Z,4.28
2022-12-08T05:40:19.277Z,3.56
2022-12-08T05:42:48.987Z,3.10
2022-12-08T05:45:19.064Z,4.05
2022-12-08T05:47:49.164Z,6.03
2022-12-08T05:50:19.379Z,5.04
2022-12-08T05:52:49.174Z,3.57
2022-12-08T05:55:18.956Z,2.90
2022-12-08T05:57:48.667Z,3.47
2022-12-08T06:00:19.761Z,5.95
2022-12-08T06:02:49.958Z,3.95
2022-12-08T06:05:19.462Z,6.67
2022-12-08T06:07:49.239Z,3.93
2022-12-08T06:10:19.413Z,6.10
2022-12-08T06:12:49.131Z,5.67
2022-12-08T06:18:01.227Z,6.90
2022-12-08T06:20:30.953Z,6.42
2022-12-08T06:23:00.737Z,4.10
2022-12-08T06:25:30.483Z,5.07
2022-12-08T06:28:00.214Z,9.77
2022-12-08T06:30:29.943Z,3.70
2022-12-08T06:33:00.040Z,4.15
2022-12-08T06:35:29.836Z,4.90
2022-12-08T06:37:59.553Z,4.73
2022-12-08T06:40:29.296Z,8.43
2022-12-08T06:42:59.296Z,3.60
2022-12-08T06:45:28.797Z,4.65
2022-12-08T06:47:58.506Z,4.63
2022-12-08T06:50:28.632Z,3.60
2022-12-08T06:53:05.213Z,4.00
2022-12-08T06:58:02.262Z,7.33
2022-12-08T07:00:31.690Z,4.90
2022-12-08T07:03:01.479Z,3.57
2022-12-08T07:05:31.207Z,4.37
2022-12-08T07:08:01.021Z,3.40
2022-12-08T07:10:30.755Z,4.17
2022-12-08T07:13:00.492Z,5.10
2022-12-08T07:15:30.297Z,7.40
2022-12-08T07:18:00.585Z,7.27
2022-12-08T07:20:30.215Z,6.75
2022-12-08T07:23:00.003Z,8.27
2022-12-08T07:25:29.725Z,5.17
2022-12-08T07:27:59.443Z,6.83
2022-12-08T07:30:29.443Z,5.87
2022-12-08T07:32:59.267Z,9.13
2022-12-08T07:35:28.997Z,7.13
2022-12-08T07:37:59.005Z,6.83
2022-12-08T07:40:28.654Z,5.90
2022-12-08T07:42:58.384Z,4.47
2022-12-08T07:45:31.409Z,4.80
2022-12-08T07:47:59.624Z,4.77
2022-12-08T07:50:29.109Z,6.83
2022-12-08T07:52:58.849Z,7.57
2022-12-08T07:55:28.710Z,11.40
2022-12-08T07:57:58.440Z,6.60
2022-12-08T08:00:28.256Z,9.18
2022-12-08T08:02:58.129Z,6.37
2022-12-08T08:05:27.871Z,8.60
2022-12-08T08:07:57.715Z,6.20
2022-12-08T08:10:27.667Z,5.90
2022-12-08T08:13:01.430Z,5.83
2022-12-08T08:15:31.426Z,4.97
2022-12-08T08:18:01.263Z,4.33
2022-12-08T08:20:30.747Z,5.60
2022-12-08T08:23:00.482Z,5.70
2022-12-08T08:25:30.209Z,7.20
2022-12-08T08:28:00.232Z,4.78
2022-12-08T08:30:29.658Z,4.33
2022-12-08T08:32:59.380Z,6.87
2022-12-08T08:35:29.207Z,5.70
2022-12-08T08:37:58.702Z,8.05
2022-12-08T08:40:28.600Z,4.00
2022-12-08T08:42:59.837Z,4.50
2022-12-08T08:45:29.831Z,4.13
2022-12-08T08:47:59.572Z,4.83
2022-12-08T08:50:32.951Z,3.77
2022-12-08T08:53:00.598Z,3.10
2022-12-08T08:55:30.312Z,2.27
2022-12-08T08:57:59.776Z,3.00
2022-12-08T09:00:29.423Z,2.00
2022-12-08T09:02:59.122Z,1.57
2022-12-08T09:05:28.841Z,3.50
2022-12-08T09:07:58.791Z,3.27
2022-12-08T09:10:29.068Z,3.07
2022-12-08T09:12:59.086Z,3.95
2022-12-08T09:15:28.799Z,3.90
2022-12-08T09:17:58.606Z,2.20
2022-12-08T09:20:28.322Z,3.50
2022-12-08T09:22:58.046Z,3.57
2022-12-08T09:25:28.646Z,3.73
2022-12-08T09:27:58.357Z,3.33
2022-12-08T09:30:27.914Z,4.50
2022-12-08T09:32:57.705Z,4.43
2022-12-08T09:35:27.413Z,3.50
2022-12-08T09:37:57.225Z,3.43
2022-12-08T09:40:27.879Z,2.85
2022-12-08T09:43:03.166Z,2.53
2022-12-08T09:45:37.261Z,1.87
2022-12-08T09:48:20.028Z,2.42
2022-12-08T09:50:57.668Z,1.97
2022-12-08T09:53:42.073Z,1.20
2022-12-08T09:56:20.231Z,1.60
2022-12-08T09:59:01.784Z,1.77
2022-12-08T10:01:34.358Z,1.77
2022-12-08T10:04:12.192Z,2.52
2022-12-08T10:06:47.756Z,1.37
2022-12-08T10:09:39.537Z,3.17
2022-12-08T10:12:47.745Z,6.17
2022-12-08T10:15:44.188Z,2.87
2022-12-08T10:18:18.996Z,7.53
2022-12-08T10:20:50.759Z,6.90
2022-12-08T10:23:26.070Z,8.17
2022-12-08T10:26:01.702Z,5.30
2022-12-08T10:28:32.211Z,5.97
2022-12-08T10:31:02.298Z,8.47
2022-12-08T10:33:34.867Z,7.70
2022-12-08T10:36:06.077Z,7.67
2022-12-08T10:38:40.583Z,5.03
2022-12-08T10:41:17.486Z,4.97
2022-12-08T10:43:53.142Z,7.17
2022-12-08T10:46:27.428Z,4.87
2022-12-08T10:49:08.921Z,6.00
2022-12-08T10:51:43.746Z,10.17
2022-12-08T10:54:32.151Z,5.18
2022-12-08T10:57:01.864Z,8.13
2022-12-08T10:59:34.610Z,8.27
2022-12-08T11:02:09.367Z,6.85
2022-12-08T11:04:39.475Z,5.77
2022-12-08T11:07:11.608Z,8.15
2022-12-08T11:09:47.941Z,8.90
2022-12-08T11:12:22.396Z,12.80
2022-12-08T11:14:59.888Z,6.15
2022-12-08T11:17:31.949Z,8.93
2022-12-08T11:20:13.366Z,6.53
2022-12-08T11:22:45.188Z,8.30
2022-12-08T11:25:20.437Z,10.77
2022-12-08T11:27:52.670Z,5.13
2022-12-08T11:30:24.827Z,6.13
2022-12-08T11:33:06.229Z,6.63
2022-12-08T11:35:41.461Z,7.07
2022-12-08T11:38:22.300Z,9.28
2022-12-08T11:41:03.148Z,6.40
2022-12-08T11:43:51.449Z,7.37
2022-12-08T11:46:29.988Z,7.92
2022-12-08T11:49:08.788Z,6.37
2022-12-08T11:51:47.044Z,6.40
2022-12-08T11:54:34.610Z,4.83
2022-12-08T11:57:06.792Z,6.20
2022-12-08T11:59:39.683Z,7.03
2022-12-08T12:02:21.111Z,6.52
2022-12-08T12:04:56.782Z,7.10
2022-12-08T12:07:46.480Z,7.15
2022-12-08T12:10:22.307Z,6.75
2022-12-08T12:13:15.777Z,6.10
2022-12-08T12:16:03.787Z,7.15
2022-12-08T12:18:43.739Z,5.43
2022-12-08T12:21:25.129Z,7.87
2022-12-08T12:24:00.375Z,5.20
2022-12-08T12:26:32.755Z,3.93
2022-12-08T12:29:05.512Z,7.53
2022-12-08T12:31:38.412Z,5.40
2022-12-08T12:34:24.665Z,3.87
2022-12-08T12:36:59.861Z,2.67
2022-12-08T12:39:32.289Z,3.47
2022-12-08T12:42:04.746Z,3.77
2022-12-08T12:44:37.510Z,2.60
2022-12-08T12:47:10.294Z,4.70
2022-12-08T12:49:46.091Z,3.30
2022-12-08T12:52:21.490Z,2.67
2022-12-08T12:54:54.550Z,3.10
2022-12-08T12:57:36.122Z,3.70
2022-12-08T13:00:11.080Z,3.90
2022-12-08T13:02:49.762Z,3.30
2022-12-08T13:05:31.534Z,1.45
2022-12-08T13:08:10.489Z,1.82
2022-12-08T13:10:42.954Z,1.42
2022-12-08T13:13:17.365Z,3.47
2022-12-08T13:15:53.003Z,3.67
2022-12-08T13:18:40.386Z,1.30
2022-12-08T13:21:15.365Z,1.85
2022-12-08T13:23:53.928Z,2.80
2022-12-08T13:26:26.717Z,2.47
2022-12-08T13:29:05.399Z,3.87
2022-12-08T13:31:49.785Z,1.97
2022-12-08T13:34:47.974Z,1.60
2022-12-08T13:37:26.856Z,2.70
2022-12-08T13:40:08.725Z,5.37
2022-12-08T13:42:50.336Z,2.10
2022-12-08T13:45:59.002Z,5.70
2022-12-08T13:58:33.174Z,6.67
2022-12-08T14:01:17.949Z,2.90
2022-12-08T14:04:30.857Z,4.83
2022-12-08T14:06:38.830Z,2.77
2022-12-08T14:09:15.757Z,3.93
2022-12-08T14:11:48.777Z,6.20
2022-12-08T14:15:00.566Z,4.28
2022-12-08T14:17:05.467Z,4.10
2022-12-08T14:19:36.607Z,4.03
2022-12-08T14:22:12.392Z,4.87
2022-12-08T14:24:47.893Z,7.20
2022-12-08T14:27:23.585Z,4.43
2022-12-08T14:29:59.051Z,5.15
2022-12-08T14:32:34.320Z,5.13
2022-12-08T14:35:09.305Z,8.03
2022-12-08T14:37:50.736Z,4.83
2022-12-08T14:40:34.839Z,6.57
2022-12-08T14:43:13.729Z,7.60
2022-12-08T14:45:48.959Z,7.53
2022-12-08T14:48:27.178Z,9.13
2022-12-08T14:51:01.627Z,7.13
2022-12-08T14:53:40.592Z,6.72
2022-12-08T14:56:22.079Z,4.90
2022-12-08T14:59:11.151Z,5.10
2022-12-08T15:01:42.814Z,6.30
2022-12-08T15:04:18.784Z,7.03
2022-12-08T15:07:12.277Z,5.83
2022-12-08T15:09:48.845Z,5.37
2022-12-08T15:12:27.337Z,5.70
2022-12-08T15:15:17.613Z,5.47
2022-12-08T15:18:15.458Z,5.95
2022-12-08T15:20:53.786Z,6.33
2022-12-08T15:23:31.135Z,6.37
2022-12-08T15:26:01.212Z,5.73
2022-12-08T15:28:31.297Z,5.40
2022-12-08T15:31:01.118Z,6.90
2022-12-08T15:33:30.886Z,9.07
2022-12-08T15:36:00.618Z,9.17
2022-12-08T15:38:30.547Z,6.05
2022-12-08T15:41:00.260Z,7.50
2022-12-08T15:43:31.423Z,8.43
2022-12-08T15:46:01.236Z,7.20
2022-12-08T15:48:31.487Z,7.97
2022-12-08T15:51:01.275Z,10.27
2022-12-08T15:53:31.012Z,8.40
2022-12-08T15:56:26.883Z,7.00
2022-12-08T15:58:54.064Z,7.83
2022-12-08T16:01:08.473Z,6.93
2022-12-08T16:07:26.886Z,8.90
2022-12-08T16:08:56.339Z,11.05
2022-12-08T16:14:48.730Z,13.03
2022-12-08T16:16:43.288Z,14.75
2022-12-08T16:19:15.989Z,14.43
2022-12-08T16:22:30.141Z,14.03
2022-12-08T16:24:16.803Z,14.40
2022-12-08T16:27:58.551Z,15.90
2022-12-08T16:29:22.538Z,19.53
2022-12-08T16:31:52.467Z,22.20
2022-12-08T16:34:22.050Z,18.43
2022-12-08T16:36:52.355Z,24.13
2022-12-08T16:39:22.197Z,22.70
2022-12-08T16:42:09.576Z,29.90
2022-12-08T16:44:41.988Z,21.37
2022-12-08T16:47:12.256Z,21.97
2022-12-08T16:49:42.285Z,21.60
2022-12-08T16:52:12.153Z,20.70
2022-12-08T16:54:41.880Z,24.77
2022-12-08T16:57:12.192Z,25.30
2022-12-08T16:59:42.091Z,25.17
2022-12-08T17:02:16.291Z,32.60
2022-12-08T17:04:43.616Z,40.53
2022-12-08T17:07:13.472Z,36.87
2022-12-08T17:09:43.475Z,33.00
2022-12-08T17:12:12.960Z,28.63
2022-12-08T17:14:42.699Z,28.23
2022-12-08T17:17:12.507Z,27.07
2022-12-08T17:19:42.553Z,24.72
2022-12-08T17:22:11.988Z,24.65
2022-12-08T17:24:41.724Z,26.73
2022-12-08T17:27:11.468Z,27.50
2022-12-08T17:29:41.207Z,27.07
2022-12-08T17:32:11.665Z,27.25
2022-12-08T17:34:41.477Z,28.80
2022-12-08T17:37:11.208Z,27.13
2022-12-08T17:39:41.108Z,26.37
2022-12-08T17:42:11.460Z,25.44
2022-12-08T17:44:41.480Z,22.58
2022-12-08T17:47:11.329Z,22.35
2022-12-08T17:49:41.045Z,26.40
2022-12-08T17:52:12.437Z,24.20
2022-12-08T17:54:42.180Z,34.97
2022-12-08T17:57:11.909Z,23.27
2022-12-08T17:59:41.816Z,24.80
2022-12-08T18:02:12.487Z,23.16
2022-12-08T18:04:42.561Z,20.65
2022-12-08T18:07:12.617Z,21.27
2022-12-08T18:09:42.669Z,20.10
2022-12-08T18:12:12.106Z,22.25
2022-12-08T18:14:41.859Z,20.43
2022-12-08T18:17:11.652Z,25.13
2022-12-08T18:19:41.894Z,21.62
2022-12-08T18:22:12.225Z,22.37
2022-12-08T18:24:42.339Z,20.90
2022-12-08T18:27:12.078Z,22.93
2022-12-08T18:29:41.826Z,22.20
2022-12-08T18:32:12.376Z,20.48
2022-12-08T18:34:42.125Z,22.13
2022-12-08T18:37:11.876Z,22.37
2022-12-08T18:39:41.883Z,19.03
2022-12-08T18:42:23.651Z,20.47
2022-12-08T18:45:06.109Z,18.70
2022-12-08T18:47:40.620Z,21.27
2022-12-08T18:50:12.592Z,20.30
2022-12-08T18:52:42.304Z,18.60
2022-12-08T18:55:12.139Z,20.02
2022-12-08T18:57:43.745Z,20.33
2022-12-08T19:00:17.440Z,17.64
2022-12-08T19:02:47.570Z,20.48
2022-12-08T19:05:17.423Z,18.47
2022-12-08T19:07:47.395Z,19.90
2022-12-08T19:10:17.443Z,18.50
2022-12-08T19:12:48.698Z,22.77
2022-12-08T19:15:18.599Z,24.20
2022-12-08T19:17:48.708Z,22.40
2022-12-08T19:20:18.726Z,21.65
2022-12-08T19:22:48.760Z,26.73
2022-12-08T19:25:18.593Z,21.68
2022-12-08T19:27:48.475Z,25.63
2022-12-08T19:30:18.223Z,21.43
2022-12-08T19:32:48.227Z,21.07
2022-12-08T19:35:18.063Z,18.70
2022-12-08T19:37:47.790Z,22.80
2022-12-08T19:40:34.856Z,23.50
2022-12-08T19:43:22.257Z,22.13
2022-12-08T19:45:52.564Z,24.47
2022-12-08T19:48:22.398Z,21.42
2022-12-08T19:50:52.223Z,19.77
2022-12-08T19:53:24.280Z,20.20
2022-12-08T19:55:54.090Z,21.23
2022-12-08T19:58:24.240Z,24.72
2022-12-08T20:00:54.045Z,20.80
2022-12-08T20:06:33.718Z,24.52
2022-12-08T20:09:03.775Z,20.97
2022-12-08T20:11:33.567Z,24.47
2022-12-08T20:14:03.690Z,22.98
2022-12-08T20:16:34.259Z,25.77
2022-12-08T20:19:05.056Z,23.77
2022-12-08T20:21:34.770Z,26.13
2022-12-08T20:24:06.521Z,27.00
2022-12-08T20:26:36.007Z,25.37
2022-12-08T20:29:07.332Z,30.63
2022-12-08T20:31:37.160Z,26.73
2022-12-08T20:34:09.702Z,37.17
2022-12-08T20:36:39.419Z,36.20
2022-12-08T20:39:14.558Z,39.57
2022-12-08T20:41:45.128Z,34.53
2022-12-08T20:44:15.070Z,33.90
2022-12-08T20:46:49.416Z,34.70
2022-12-08T20:49:16.745Z,38.03
2022-12-08T20:51:49.659Z,39.77
2022-12-08T20:54:19.087Z,34.30
2022-12-08T20:56:49.096Z,37.37
2022-12-08T20:59:19.181Z,38.37
2022-12-08T21:01:49.008Z,33.83
2022-12-08T21:04:19.493Z,32.87
2022-12-08T21:06:50.267Z,36.50
2022-12-08T21:09:20.653Z,36.83
2022-12-08T21:11:50.968Z,45.05
2022-12-08T21:14:20.823Z,38.83
2022-12-08T21:16:51.000Z,39.80
2022-12-08T21:19:21.412Z,37.27
2022-12-08T21:21:51.291Z,37.67
2022-12-08T21:24:21.050Z,36.60
2022-12-08T21:26:50.809Z,45.13
2022-12-08T21:29:20.857Z,51.80
2022-12-08T21:31:51.853Z,48.67
2022-12-08T21:34:21.615Z,48.48
2022-12-08T21:36:51.961Z,57.80
2022-12-08T21:39:21.663Z,51.37
2022-12-08T21:42:09.219Z,59.47
2022-12-08T21:44:38.986Z,55.87
2022-12-08T21:47:10.352Z,53.03
2022-12-08T21:49:40.123Z,54.90
2022-12-08T21:52:11.302Z,55.83
2022-12-08T21:54:41.181Z,53.50
2022-12-08T21:57:12.481Z,56.77
2022-12-08T21:59:42.602Z,52.45
2022-12-08T22:02:22.008Z,56.55
2022-12-08T22:04:48.011Z,49.50
2022-12-08T22:07:18.083Z,54.03
2022-12-08T22:09:48.053Z,57.20
2022-12-08T22:12:17.883Z,55.35
2022-12-08T22:14:49.273Z,59.87
2022-12-08T22:17:19.872Z,58.43
2022-12-08T22:19:50.026Z,57.30
2022-12-08T22:22:19.383Z,58.70
2022-12-08T22:24:49.411Z,55.98
2022-12-08T22:27:19.194Z,52.97
2022-12-08T22:29:48.875Z,58.57
2022-12-08T22:32:19.268Z,61.37
2022-12-08T22:34:49.135Z,54.97
2022-12-08T22:37:18.852Z,60.77
2022-12-08T22:39:48.590Z,63.03
2022-12-08T22:42:18.981Z,57.57
2022-12-08T22:44:48.805Z,62.83
2022-12-08T22:47:18.506Z,55.03
2022-12-08T22:49:48.528Z,62.55
2022-12-08T22:52:18.265Z,60.23
2022-12-08T22:54:47.978Z,61.63
2022-12-08T22:57:17.793Z,63.30
2022-12-08T22:59:47.219Z,60.40
2022-12-08T23:02:17.124Z,57.65
2022-12-08T23:04:47.259Z,60.27
2022-12-08T23:07:17.271Z,59.33
2022-12-08T23:09:47.137Z,61.37
2022-12-08T23:12:16.756Z,56.57
2022-12-08T23:14:46.539Z,59.43
2022-12-08T23:17:16.603Z,57.37
2022-12-08T23:19:46.880Z,58.48
2022-12-08T23:22:16.777Z,56.90
2022-12-08T23:24:46.547Z,57.23
2022-12-08T23:27:16.344Z,60.27
2022-12-08T23:29:46.269Z,64.47
2022-12-08T23:32:16.129Z,60.80
2022-12-08T23:34:46.921Z,63.77
2022-12-08T23:37:17.027Z,79.25
2022-12-08T23:39:46.910Z,70.13
2022-12-08T23:42:16.595Z,66.60
2022-12-08T23:44:46.801Z,68.15
2022-12-08T23:47:16.786Z,67.73
2022-12-08T23:49:46.660Z,66.60
2022-12-08T23:52:16.521Z,68.60
2022-12-08T23:54:46.253Z,70.83
2022-12-08T23:57:15.985Z,63.80
2022-12-08T23:59:45.995Z,66.20
